Airfield :







YOU CAN JOIN US ON...

 
LOGIN :

Register | Disclaimer

   EN    FR    IT 

 









Legend :    VFR   Marginal VFR   IFR   Intensive IFR   Very Intensive IFR
Visi :
Ceiling :
>= 8 km
>= 3000ft
5 to 8 km
1000 to 3000 ft
1500m to 5 km
500 to 1000 ft
800 to 1500m
200 to 500 ft
< 800m
< 200 ft
Symbols :   Thunderstorms  Fog  Heavy snow  Heavy precipitations  Wind > 20 kt






- Airport Elevation : 1663 ft
- IATA code : SLK


KSLK - Adirondack Regional

CURRENT METAR :
  • 311551Z AUTO 24007KT 10SM FEW032 SCT039 OVC065 07/00 A3009 RMK AO2 SLP199 T00670000

EXPIRED METARs :
  • 311451Z AUTO 29009KT 10SM OVC039 06/M01 A3009 RMK AO2 SLP198 T00611011 51004
  • 311351Z AUTO VRB04KT 10SM FEW030 OVC040 06/M02 A3009 RMK AO2 SLP197 T00611017

TAF KSLK
Valid from the 31 at 12:00 until the 01 at 12:00 UTC


311121Z 3112/0112 VRB05KT P6SM SCT025
FM311500 29008G16KT P6SM BKN045
FM312200 26006KT P6SM SCT070
FM010200 00000KT P6SM VCSH BKN050
FM010600 00000KT P6SM BKN035
KZBW FIR / North America



MET'MAP, your aeronautical weather chart ! - Copyright ORBIFLY December 2007 - Disclaimer

ORBIFLY MET'MAP TEAM :

Programming & Development : Alexandra Zaïnal
Concept & original design : Baudouin d'Aumeries
Assistance for programming : Marc-Olivier Méhu
Technical & hardware support : Manuel Goepfert

Contact : metmap@orbifly.com




SOURCES & CREDITS :

   NOAA